sensor_id;sensor_type;location;lat;lon;timestamp;P1;durP1;ratioP1;P2;durP2;ratioP2
41739;SDS011;27422;52.444;13.300;2023-02-03T00:00:22;8.02;;;2.50;;
41739;SDS011;27422;52.444;13.300;2023-02-03T00:02:47;7.60;;;2.35;;
41739;SDS011;27422;52.444;13.300;2023-02-03T00:05:13;4.88;;;2.10;;
41739;SDS011;27422;52.444;13.300;2023-02-03T00:07:38;5.15;;;2.42;;
41739;SDS011;27422;52.444;13.300;2023-02-03T00:10:04;5.93;;;1.90;;
41739;SDS011;27422;52.444;13.300;2023-02-03T00:12:30;5.53;;;2.30;;
41739;SDS011;27422;52.444;13.300;2023-02-03T00:14:56;6.15;;;2.13;;
41739;SDS011;27422;52.444;13.300;2023-02-03T00:17:21;6.70;;;2.40;;
41739;SDS011;27422;52.444;13.300;2023-02-03T00:19:47;8.25;;;2.38;;
41739;SDS011;27422;52.444;13.300;2023-02-03T00:22:13;5.38;;;2.08;;
41739;SDS011;27422;52.444;13.300;2023-02-03T00:24:38;4.25;;;2.13;;
41739;SDS011;27422;52.444;13.300;2023-02-03T00:27:04;5.05;;;1.98;;
41739;SDS011;27422;52.444;13.300;2023-02-03T00:29:30;7.07;;;2.20;;
41739;SDS011;27422;52.444;13.300;2023-02-03T00:31:55;6.80;;;2.03;;
41739;SDS011;27422;52.444;13.300;2023-02-03T00:34:26;5.95;;;2.45;;
41739;SDS011;27422;52.444;13.300;2023-02-03T00:36:52;8.80;;;2.03;;
41739;SDS011;27422;52.444;13.300;2023-02-03T00:39:17;9.85;;;2.30;;
41739;SDS011;27422;52.444;13.300;2023-02-03T00:41:42;6.28;;;2.22;;
41739;SDS011;27422;52.444;13.300;2023-02-03T00:44:08;7.25;;;2.83;;
41739;SDS011;27422;52.444;13.300;2023-02-03T00:46:33;7.38;;;2.65;;
41739;SDS011;27422;52.444;13.300;2023-02-03T00:49:02;8.38;;;2.45;;
41739;SDS011;27422;52.444;13.300;2023-02-03T00:51:28;7.47;;;3.08;;
41739;SDS011;27422;52.444;13.300;2023-02-03T00:53:57;5.40;;;2.10;;
41739;SDS011;27422;52.444;13.300;2023-02-03T00:56:22;10.40;;;3.28;;
41739;SDS011;27422;52.444;13.300;2023-02-03T00:58:48;8.63;;;2.58;;
41739;SDS011;27422;52.444;13.300;2023-02-03T01:01:13;5.97;;;2.45;;
41739;SDS011;27422;52.444;13.300;2023-02-03T01:03:39;7.85;;;2.90;;
41739;SDS011;27422;52.444;13.300;2023-02-03T01:06:08;6.40;;;2.42;;
41739;SDS011;27422;52.444;13.300;2023-02-03T01:08:34;7.20;;;3.50;;
41739;SDS011;27422;52.444;13.300;2023-02-03T01:11:04;12.50;;;3.30;;
41739;SDS011;27422;52.444;13.300;2023-02-03T01:13:33;9.40;;;3.15;;
41739;SDS011;27422;52.444;13.300;2023-02-03T01:15:58;11.95;;;3.80;;
41739;SDS011;27422;52.444;13.300;2023-02-03T01:20:52;9.13;;;3.45;;
41739;SDS011;27422;52.444;13.300;2023-02-03T01:23:17;8.57;;;3.90;;
41739;SDS011;27422;52.444;13.300;2023-02-03T01:25:43;11.77;;;4.45;;
41739;SDS011;27422;52.444;13.300;2023-02-03T01:28:08;11.95;;;3.70;;
41739;SDS011;27422;52.444;13.300;2023-02-03T01:30:33;8.73;;;3.92;;
41739;SDS011;27422;52.444;13.300;2023-02-03T01:32:59;9.30;;;3.33;;
41739;SDS011;27422;52.444;13.300;2023-02-03T01:35:25;9.68;;;4.07;;
41739;SDS011;27422;52.444;13.300;2023-02-03T01:37:50;8.68;;;4.55;;
41739;SDS011;27422;52.444;13.300;2023-02-03T01:40:16;11.18;;;4.78;;
41739;SDS011;27422;52.444;13.300;2023-02-03T01:42:42;13.98;;;5.75;;
41739;SDS011;27422;52.444;13.300;2023-02-03T01:45:10;13.65;;;4.60;;
41739;SDS011;27422;52.444;13.300;2023-02-03T01:47:38;13.57;;;5.32;;
41739;SDS011;27422;52.444;13.300;2023-02-03T01:50:15;10.80;;;4.55;;
41739;SDS011;27422;52.444;13.300;2023-02-03T01:53:01;11.80;;;4.88;;
41739;SDS011;27422;52.444;13.300;2023-02-03T01:55:31;7.93;;;4.30;;
41739;SDS011;27422;52.444;13.300;2023-02-03T01:58:08;11.70;;;4.55;;
41739;SDS011;27422;52.444;13.300;2023-02-03T02:00:34;11.48;;;4.95;;
41739;SDS011;27422;52.444;13.300;2023-02-03T02:02:59;10.23;;;4.75;;
41739;SDS011;27422;52.444;13.300;2023-02-03T02:05:28;9.13;;;4.45;;
41739;SDS011;27422;52.444;13.300;2023-02-03T02:07:57;10.25;;;4.65;;
41739;SDS011;27422;52.444;13.300;2023-02-03T02:10:23;10.73;;;3.83;;
41739;SDS011;27422;52.444;13.300;2023-02-03T02:12:49;10.43;;;4.25;;
41739;SDS011;27422;52.444;13.300;2023-02-03T02:15:15;8.80;;;3.85;;
41739;SDS011;27422;52.444;13.300;2023-02-03T02:20:37;11.80;;;4.40;;
41739;SDS011;27422;52.444;13.300;2023-02-03T02:28:52;10.23;;;3.78;;
41739;SDS011;27422;52.444;13.300;2023-02-03T02:31:42;8.10;;;4.00;;
41739;SDS011;27422;52.444;13.300;2023-02-03T02:37:18;11.45;;;4.55;;
41739;SDS011;27422;52.444;13.300;2023-02-03T02:39:46;9.75;;;4.07;;
41739;SDS011;27422;52.444;13.300;2023-02-03T02:45:20;7.15;;;3.10;;
41739;SDS011;27422;52.444;13.300;2023-02-03T02:47:46;5.45;;;3.13;;
41739;SDS011;27422;52.444;13.300;2023-02-03T02:50:17;6.43;;;2.83;;
41739;SDS011;27422;52.444;13.300;2023-02-03T02:52:47;7.95;;;3.10;;
41739;SDS011;27422;52.444;13.300;2023-02-03T02:55:16;5.47;;;2.85;;
41739;SDS011;27422;52.444;13.300;2023-02-03T02:57:48;5.60;;;2.95;;
41739;SDS011;27422;52.444;13.300;2023-02-03T03:00:16;6.15;;;2.80;;
41739;SDS011;27422;52.444;13.300;2023-02-03T03:02:41;5.20;;;2.60;;
41739;SDS011;27422;52.444;13.300;2023-02-03T03:05:07;6.25;;;2.90;;
41739;SDS011;27422;52.444;13.300;2023-02-03T03:07:40;5.13;;;2.72;;
41739;SDS011;27422;52.444;13.300;2023-02-03T03:10:09;5.97;;;2.55;;
41739;SDS011;27422;52.444;13.300;2023-02-03T03:12:37;4.97;;;2.20;;
41739;SDS011;27422;52.444;13.300;2023-02-03T03:15:06;6.10;;;2.70;;
41739;SDS011;27422;52.444;13.300;2023-02-03T03:17:37;4.85;;;2.30;;
41739;SDS011;27422;52.444;13.300;2023-02-03T03:20:31;4.22;;;2.40;;
41739;SDS011;27422;52.444;13.300;2023-02-03T03:23:06;5.60;;;2.15;;
41739;SDS011;27422;52.444;13.300;2023-02-03T03:25:40;4.25;;;1.98;;
41739;SDS011;27422;52.444;13.300;2023-02-03T03:28:10;5.63;;;2.30;;
41739;SDS011;27422;52.444;13.300;2023-02-03T03:30:38;4.60;;;2.00;;
41739;SDS011;27422;52.444;13.300;2023-02-03T03:33:04;3.85;;;1.92;;
41739;SDS011;27422;52.444;13.300;2023-02-03T03:35:49;3.58;;;2.00;;
41739;SDS011;27422;52.444;13.300;2023-02-03T03:38:25;3.80;;;1.83;;
41739;SDS011;27422;52.444;13.300;2023-02-03T03:41:00;3.40;;;1.52;;
41739;SDS011;27422;52.444;13.300;2023-02-03T03:43:28;4.15;;;1.85;;
41739;SDS011;27422;52.444;13.300;2023-02-03T03:46:04;3.58;;;1.83;;
41739;SDS011;27422;52.444;13.300;2023-02-03T03:49:07;4.00;;;1.90;;
41739;SDS011;27422;52.444;13.300;2023-02-03T03:53:52;3.53;;;1.80;;
41739;SDS011;27422;52.444;13.300;2023-02-03T03:56:23;4.68;;;2.17;;
41739;SDS011;27422;52.444;13.300;2023-02-03T03:58:51;4.43;;;2.47;;
41739;SDS011;27422;52.444;13.300;2023-02-03T04:01:18;3.63;;;2.08;;
41739;SDS011;27422;52.444;13.300;2023-02-03T04:03:48;4.20;;;2.13;;
41739;SDS011;27422;52.444;13.300;2023-02-03T04:06:24;5.50;;;2.33;;
41739;SDS011;27422;52.444;13.300;2023-02-03T04:08:50;4.93;;;2.38;;
41739;SDS011;27422;52.444;13.300;2023-02-03T04:11:16;4.30;;;2.30;;
41739;SDS011;27422;52.444;13.300;2023-02-03T04:14:01;5.03;;;2.55;;
41739;SDS011;27422;52.444;13.300;2023-02-03T04:16:27;5.63;;;2.50;;
41739;SDS011;27422;52.444;13.300;2023-02-03T04:18:52;5.22;;;2.60;;
41739;SDS011;27422;52.444;13.300;2023-02-03T04:21:20;5.40;;;3.05;;
41739;SDS011;27422;52.444;13.300;2023-02-03T04:23:48;5.72;;;2.90;;
41739;SDS011;27422;52.444;13.300;2023-02-03T04:26:15;5.38;;;3.28;;
41739;SDS011;27422;52.444;13.300;2023-02-03T04:28:40;6.63;;;3.60;;
41739;SDS011;27422;52.444;13.300;2023-02-03T04:31:11;7.15;;;3.65;;
41739;SDS011;27422;52.444;13.300;2023-02-03T04:33:43;7.90;;;3.95;;
41739;SDS011;27422;52.444;13.300;2023-02-03T04:36:09;7.50;;;4.00;;
41739;SDS011;27422;52.444;13.300;2023-02-03T04:38:34;7.88;;;4.32;;
41739;SDS011;27422;52.444;13.300;2023-02-03T04:41:00;9.70;;;4.55;;
41739;SDS011;27422;52.444;13.300;2023-02-03T04:43:28;8.35;;;4.55;;
41739;SDS011;27422;52.444;13.300;2023-02-03T04:45:57;7.75;;;3.78;;
41739;SDS011;27422;52.444;13.300;2023-02-03T04:48:24;8.60;;;4.95;;
41739;SDS011;27422;52.444;13.300;2023-02-03T04:50:49;8.75;;;4.88;;
41739;SDS011;27422;52.444;13.300;2023-02-03T04:53:14;11.52;;;5.90;;
41739;SDS011;27422;52.444;13.300;2023-02-03T04:55:40;11.70;;;6.15;;
41739;SDS011;27422;52.444;13.300;2023-02-03T04:58:05;12.05;;;6.22;;
41739;SDS011;27422;52.444;13.300;2023-02-03T05:00:31;12.68;;;6.57;;
41739;SDS011;27422;52.444;13.300;2023-02-03T05:02:56;12.98;;;5.80;;
41739;SDS011;27422;52.444;13.300;2023-02-03T05:05:21;15.45;;;7.18;;
41739;SDS011;27422;52.444;13.300;2023-02-03T05:07:47;16.85;;;7.25;;
41739;SDS011;27422;52.444;13.300;2023-02-03T05:10:12;15.30;;;7.28;;
41739;SDS011;27422;52.444;13.300;2023-02-03T05:12:41;15.43;;;7.93;;
41739;SDS011;27422;52.444;13.300;2023-02-03T05:15:15;15.95;;;7.57;;
41739;SDS011;27422;52.444;13.300;2023-02-03T05:17:41;17.52;;;7.95;;
41739;SDS011;27422;52.444;13.300;2023-02-03T05:23:11;18.40;;;8.25;;
41739;SDS011;27422;52.444;13.300;2023-02-03T05:25:37;21.58;;;10.07;;
41739;SDS011;27422;52.444;13.300;2023-02-03T05:28:02;20.33;;;9.68;;
41739;SDS011;27422;52.444;13.300;2023-02-03T05:30:28;23.85;;;10.27;;
41739;SDS011;27422;52.444;13.300;2023-02-03T05:32:53;22.65;;;10.27;;
41739;SDS011;27422;52.444;13.300;2023-02-03T05:35:21;25.50;;;11.15;;
41739;SDS011;27422;52.444;13.300;2023-02-03T05:37:46;23.27;;;10.40;;
41739;SDS011;27422;52.444;13.300;2023-02-03T05:40:13;24.40;;;11.02;;
41739;SDS011;27422;52.444;13.300;2023-02-03T05:42:56;27.58;;;11.70;;
41739;SDS011;27422;52.444;13.300;2023-02-03T05:45:25;25.27;;;11.52;;
41739;SDS011;27422;52.444;13.300;2023-02-03T05:47:50;27.55;;;11.23;;
41739;SDS011;27422;52.444;13.300;2023-02-03T05:50:16;26.63;;;12.18;;
41739;SDS011;27422;52.444;13.300;2023-02-03T05:52:41;29.10;;;11.90;;
41739;SDS011;27422;52.444;13.300;2023-02-03T05:55:07;27.73;;;12.65;;
41739;SDS011;27422;52.444;13.300;2023-02-03T05:57:33;26.33;;;11.82;;
41739;SDS011;27422;52.444;13.300;2023-02-03T05:59:58;29.40;;;12.65;;
41739;SDS011;27422;52.444;13.300;2023-02-03T06:02:23;26.38;;;11.70;;
41739;SDS011;27422;52.444;13.300;2023-02-03T06:04:49;25.67;;;11.80;;
41739;SDS011;27422;52.444;13.300;2023-02-03T06:07:14;28.02;;;12.50;;
41739;SDS011;27422;52.444;13.300;2023-02-03T06:09:39;30.98;;;13.15;;
41739;SDS011;27422;52.444;13.300;2023-02-03T06:12:05;28.63;;;12.27;;
41739;SDS011;27422;52.444;13.300;2023-02-03T06:14:30;26.73;;;12.63;;
41739;SDS011;27422;52.444;13.300;2023-02-03T06:16:56;26.63;;;12.48;;
41739;SDS011;27422;52.444;13.300;2023-02-03T06:19:21;26.90;;;12.27;;
41739;SDS011;27422;52.444;13.300;2023-02-03T06:21:46;25.25;;;11.73;;
41739;SDS011;27422;52.444;13.300;2023-02-03T06:24:12;25.85;;;12.25;;
41739;SDS011;27422;52.444;13.300;2023-02-03T06:26:37;31.95;;;12.88;;
41739;SDS011;27422;52.444;13.300;2023-02-03T06:29:03;24.08;;;12.00;;
41739;SDS011;27422;52.444;13.300;2023-02-03T06:31:28;27.67;;;13.15;;
41739;SDS011;27422;52.444;13.300;2023-02-03T06:33:53;24.25;;;11.98;;
41739;SDS011;27422;52.444;13.300;2023-02-03T06:36:21;24.63;;;12.23;;
41739;SDS011;27422;52.444;13.300;2023-02-03T06:38:47;24.10;;;11.88;;
41739;SDS011;27422;52.444;13.300;2023-02-03T06:41:13;26.75;;;12.13;;
41739;SDS011;27422;52.444;13.300;2023-02-03T06:43:38;27.77;;;13.25;;
41739;SDS011;27422;52.444;13.300;2023-02-03T06:46:05;24.27;;;11.77;;
41739;SDS011;27422;52.444;13.300;2023-02-03T06:48:31;28.33;;;12.68;;
41739;SDS011;27422;52.444;13.300;2023-02-03T06:50:56;24.05;;;11.85;;
41739;SDS011;27422;52.444;13.300;2023-02-03T06:53:22;26.00;;;12.15;;
41739;SDS011;27422;52.444;13.300;2023-02-03T06:55:47;23.02;;;11.27;;
41739;SDS011;27422;52.444;13.300;2023-02-03T06:58:12;26.42;;;12.60;;
41739;SDS011;27422;52.444;13.300;2023-02-03T07:00:38;27.38;;;13.20;;
41739;SDS011;27422;52.444;13.300;2023-02-03T07:03:03;25.13;;;12.25;;
41739;SDS011;27422;52.444;13.300;2023-02-03T07:05:29;22.85;;;12.15;;
41739;SDS011;27422;52.444;13.300;2023-02-03T07:07:57;22.27;;;12.63;;
41739;SDS011;27422;52.444;13.300;2023-02-03T07:10:23;23.38;;;12.07;;
41739;SDS011;27422;52.444;13.300;2023-02-03T07:12:48;22.90;;;12.73;;
41739;SDS011;27422;52.444;13.300;2023-02-03T07:15:15;25.33;;;11.97;;
41739;SDS011;27422;52.444;13.300;2023-02-03T07:17:48;23.75;;;11.55;;
41739;SDS011;27422;52.444;13.300;2023-02-03T07:20:22;21.48;;;11.05;;
41739;SDS011;27422;52.444;13.300;2023-02-03T07:22:54;29.38;;;13.23;;
41739;SDS011;27422;52.444;13.300;2023-02-03T07:25:24;21.55;;;11.93;;
41739;SDS011;27422;52.444;13.300;2023-02-03T07:28:34;23.20;;;11.73;;
41739;SDS011;27422;52.444;13.300;2023-02-03T07:31:07;26.92;;;12.20;;
41739;SDS011;27422;52.444;13.300;2023-02-03T07:34:19;23.25;;;11.07;;
41739;SDS011;27422;52.444;13.300;2023-02-03T07:36:59;22.75;;;12.35;;
41739;SDS011;27422;52.444;13.300;2023-02-03T07:42:51;18.73;;;11.00;;
41739;SDS011;27422;52.444;13.300;2023-02-03T07:45:29;18.00;;;10.27;;
41739;SDS011;27422;52.444;13.300;2023-02-03T07:48:01;23.00;;;11.23;;
41739;SDS011;27422;52.444;13.300;2023-02-03T07:50:37;20.48;;;10.02;;
41739;SDS011;27422;52.444;13.300;2023-02-03T07:58:46;19.75;;;9.70;;
41739;SDS011;27422;52.444;13.300;2023-02-03T08:01:15;17.58;;;9.32;;
41739;SDS011;27422;52.444;13.300;2023-02-03T08:06:53;19.20;;;9.55;;
41739;SDS011;27422;52.444;13.300;2023-02-03T08:09:56;17.45;;;8.85;;
41739;SDS011;27422;52.444;13.300;2023-02-03T08:12:27;14.02;;;8.02;;
41739;SDS011;27422;52.444;13.300;2023-02-03T08:22:22;14.95;;;7.68;;
41739;SDS011;27422;52.444;13.300;2023-02-03T08:28:42;12.90;;;7.22;;
41739;SDS011;27422;52.444;13.300;2023-02-03T08:48:21;11.52;;;6.70;;
41739;SDS011;27422;52.444;13.300;2023-02-03T08:51:01;12.55;;;6.53;;
41739;SDS011;27422;52.444;13.300;2023-02-03T08:53:34;11.90;;;6.38;;
41739;SDS011;27422;52.444;13.300;2023-02-03T08:56:02;15.32;;;7.55;;
41739;SDS011;27422;52.444;13.300;2023-02-03T09:01:48;12.10;;;6.90;;
41739;SDS011;27422;52.444;13.300;2023-02-03T09:11:18;12.10;;;6.18;;
41739;SDS011;27422;52.444;13.300;2023-02-03T09:13:46;11.07;;;6.25;;
41739;SDS011;27422;52.444;13.300;2023-02-03T09:17:06;9.95;;;5.80;;
41739;SDS011;27422;52.444;13.300;2023-02-03T09:20:20;10.70;;;5.63;;
41739;SDS011;27422;52.444;13.300;2023-02-03T09:26:49;11.10;;;5.32;;
41739;SDS011;27422;52.444;13.300;2023-02-03T09:29:49;9.38;;;5.53;;
41739;SDS011;27422;52.444;13.300;2023-02-03T09:33:08;10.07;;;5.40;;
41739;SDS011;27422;52.444;13.300;2023-02-03T09:39:44;9.05;;;4.60;;
41739;SDS011;27422;52.444;13.300;2023-02-03T09:42:41;9.55;;;5.35;;
41739;SDS011;27422;52.444;13.300;2023-02-03T09:45:38;9.48;;;5.05;;
41739;SDS011;27422;52.444;13.300;2023-02-03T09:48:26;8.85;;;4.78;;
41739;SDS011;27422;52.444;13.300;2023-02-03T09:57:03;8.90;;;4.55;;
41739;SDS011;27422;52.444;13.300;2023-02-03T09:59:42;9.07;;;4.82;;
41739;SDS011;27422;52.444;13.300;2023-02-03T10:11:00;8.98;;;4.07;;
41739;SDS011;27422;52.444;13.300;2023-02-03T10:18:49;6.82;;;3.60;;
41739;SDS011;27422;52.444;13.300;2023-02-03T10:21:24;6.60;;;3.58;;
41739;SDS011;27422;52.444;13.300;2023-02-03T10:34:41;6.95;;;2.90;;
41739;SDS011;27422;52.444;13.300;2023-02-03T10:39:52;7.63;;;2.70;;
41739;SDS011;27422;52.444;13.300;2023-02-03T10:42:24;6.60;;;2.88;;
41739;SDS011;27422;52.444;13.300;2023-02-03T10:45:12;5.72;;;2.90;;
41739;SDS011;27422;52.444;13.300;2023-02-03T10:47:42;5.65;;;2.45;;
41739;SDS011;27422;52.444;13.300;2023-02-03T10:50:18;6.13;;;3.05;;
41739;SDS011;27422;52.444;13.300;2023-02-03T10:56:13;3.95;;;1.35;;
41739;SDS011;27422;52.444;13.300;2023-02-03T10:58:46;2.17;;;0.90;;
41739;SDS011;27422;52.444;13.300;2023-02-03T11:01:17;4.75;;;0.80;;
41739;SDS011;27422;52.444;13.300;2023-02-03T11:03:59;4.68;;;1.08;;
41739;SDS011;27422;52.444;13.300;2023-02-03T11:06:31;2.20;;;0.80;;
41739;SDS011;27422;52.444;13.300;2023-02-03T11:09:20;1.70;;;0.50;;
41739;SDS011;27422;52.444;13.300;2023-02-03T11:11:49;4.32;;;0.77;;
41739;SDS011;27422;52.444;13.300;2023-02-03T11:14:50;2.50;;;0.63;;
41739;SDS011;27422;52.444;13.300;2023-02-03T11:17:17;1.52;;;0.50;;
41739;SDS011;27422;52.444;13.300;2023-02-03T11:26:00;8.32;;;1.30;;
41739;SDS011;27422;52.444;13.300;2023-02-03T11:35:13;5.47;;;1.20;;
41739;SDS011;27422;52.444;13.300;2023-02-03T11:37:58;11.57;;;1.83;;
41739;SDS011;27422;52.444;13.300;2023-02-03T11:40:31;6.88;;;1.15;;
41739;SDS011;27422;52.444;13.300;2023-02-03T11:43:13;8.93;;;1.60;;
41739;SDS011;27422;52.444;13.300;2023-02-03T11:45:49;11.15;;;1.27;;
41739;SDS011;27422;52.444;13.300;2023-02-03T11:48:21;4.53;;;1.20;;
41739;SDS011;27422;52.444;13.300;2023-02-03T12:07:38;9.00;;;1.70;;
41739;SDS011;27422;52.444;13.300;2023-02-03T12:13:04;11.23;;;1.85;;
41739;SDS011;27422;52.444;13.300;2023-02-03T12:21:03;8.50;;;1.55;;
41739;SDS011;27422;52.444;13.300;2023-02-03T12:28:47;10.52;;;1.55;;
41739;SDS011;27422;52.444;13.300;2023-02-03T12:33:57;13.32;;;2.30;;
41739;SDS011;27422;52.444;13.300;2023-02-03T12:36:50;9.27;;;1.80;;
41739;SDS011;27422;52.444;13.300;2023-02-03T12:40:05;9.18;;;1.85;;
41739;SDS011;27422;52.444;13.300;2023-02-03T12:45:44;10.70;;;2.85;;
41739;SDS011;27422;52.444;13.300;2023-02-03T12:51:23;13.43;;;2.47;;
41739;SDS011;27422;52.444;13.300;2023-02-03T12:53:55;9.32;;;1.70;;
41739;SDS011;27422;52.444;13.300;2023-02-03T12:56:42;11.13;;;2.25;;
41739;SDS011;27422;52.444;13.300;2023-02-03T12:59:19;9.63;;;1.70;;
41739;SDS011;27422;52.444;13.300;2023-02-03T13:06:59;8.25;;;1.90;;
41739;SDS011;27422;52.444;13.300;2023-02-03T13:18:07;15.00;;;2.00;;
41739;SDS011;27422;52.444;13.300;2023-02-03T13:20:51;10.85;;;2.28;;
41739;SDS011;27422;52.444;13.300;2023-02-03T13:23:17;8.20;;;1.63;;
41739;SDS011;27422;52.444;13.300;2023-02-03T13:29:00;7.03;;;1.17;;
41739;SDS011;27422;52.444;13.300;2023-02-03T13:31:49;6.78;;;1.02;;
41739;SDS011;27422;52.444;13.300;2023-02-03T13:40:03;10.35;;;1.10;;
41739;SDS011;27422;52.444;13.300;2023-02-03T13:42:43;8.57;;;1.30;;
41739;SDS011;27422;52.444;13.300;2023-02-03T13:45:18;9.52;;;1.38;;
41739;SDS011;27422;52.444;13.300;2023-02-03T13:47:47;8.98;;;1.10;;
41739;SDS011;27422;52.444;13.300;2023-02-03T13:50:17;8.95;;;1.27;;
41739;SDS011;27422;52.444;13.300;2023-02-03T13:52:57;13.25;;;2.72;;
41739;SDS011;27422;52.444;13.300;2023-02-03T13:55:38;9.27;;;2.25;;
41739;SDS011;27422;52.444;13.300;2023-02-03T13:58:06;10.73;;;1.38;;
41739;SDS011;27422;52.444;13.300;2023-02-03T14:03:14;9.38;;;1.67;;
41739;SDS011;27422;52.444;13.300;2023-02-03T14:05:47;10.50;;;2.15;;
41739;SDS011;27422;52.444;13.300;2023-02-03T14:16:40;13.15;;;2.03;;
41739;SDS011;27422;52.444;13.300;2023-02-03T14:19:59;9.88;;;2.05;;
41739;SDS011;27422;52.444;13.300;2023-02-03T14:26:23;14.93;;;2.63;;
41739;SDS011;27422;52.444;13.300;2023-02-03T14:32:19;11.55;;;2.05;;
41739;SDS011;27422;52.444;13.300;2023-02-03T14:34:50;10.30;;;2.08;;
41739;SDS011;27422;52.444;13.300;2023-02-03T14:57:57;12.80;;;2.50;;
41739;SDS011;27422;52.444;13.300;2023-02-03T15:00:44;10.27;;;2.47;;
41739;SDS011;27422;52.444;13.300;2023-02-03T15:03:23;10.20;;;2.17;;
41739;SDS011;27422;52.444;13.300;2023-02-03T15:15:30;9.63;;;2.17;;
41739;SDS011;27422;52.444;13.300;2023-02-03T16:02:32;9.73;;;1.90;;
41739;SDS011;27422;52.444;13.300;2023-02-03T16:05:30;8.93;;;1.90;;
41739;SDS011;27422;52.444;13.300;2023-02-03T16:18:21;11.82;;;1.80;;
41739;SDS011;27422;52.444;13.300;2023-02-03T16:27:33;7.65;;;1.77;;
41739;SDS011;27422;52.444;13.300;2023-02-03T16:36:46;12.73;;;2.10;;
41739;SDS011;27422;52.444;13.300;2023-02-03T16:39:35;9.65;;;1.98;;
41739;SDS011;27422;52.444;13.300;2023-02-03T16:42:25;9.20;;;1.85;;
41739;SDS011;27422;52.444;13.300;2023-02-03T16:45:32;9.25;;;2.40;;
41739;SDS011;27422;52.444;13.300;2023-02-03T16:54:56;11.90;;;2.42;;
41739;SDS011;27422;52.444;13.300;2023-02-03T16:57:31;13.15;;;2.00;;
41739;SDS011;27422;52.444;13.300;2023-02-03T17:00:02;11.77;;;2.97;;
41739;SDS011;27422;52.444;13.300;2023-02-03T17:10:11;13.75;;;2.53;;
41739;SDS011;27422;52.444;13.300;2023-02-03T17:12:45;15.50;;;2.60;;
41739;SDS011;27422;52.444;13.300;2023-02-03T17:15:26;8.57;;;1.92;;
41739;SDS011;27422;52.444;13.300;2023-02-03T17:21:25;9.90;;;1.77;;
41739;SDS011;27422;52.444;13.300;2023-02-03T17:24:06;11.48;;;2.30;;
41739;SDS011;27422;52.444;13.300;2023-02-03T17:26:40;15.48;;;2.40;;
41739;SDS011;27422;52.444;13.300;2023-02-03T17:29:51;9.85;;;2.45;;
41739;SDS011;27422;52.444;13.300;2023-02-03T17:32:20;11.27;;;2.67;;
41739;SDS011;27422;52.444;13.300;2023-02-03T17:35:46;13.95;;;2.30;;
41739;SDS011;27422;52.444;13.300;2023-02-03T17:38:19;12.07;;;2.13;;
41739;SDS011;27422;52.444;13.300;2023-02-03T17:40:48;13.57;;;2.60;;
41739;SDS011;27422;52.444;13.300;2023-02-03T17:43:22;10.02;;;2.00;;
41739;SDS011;27422;52.444;13.300;2023-02-03T17:46:00;16.10;;;3.55;;
41739;SDS011;27422;52.444;13.300;2023-02-03T17:48:25;14.55;;;2.17;;
41739;SDS011;27422;52.444;13.300;2023-02-03T17:50:51;15.18;;;1.90;;
41739;SDS011;27422;52.444;13.300;2023-02-03T17:53:16;9.82;;;2.10;;
41739;SDS011;27422;52.444;13.300;2023-02-03T17:55:42;10.73;;;2.30;;
41739;SDS011;27422;52.444;13.300;2023-02-03T17:58:08;11.88;;;1.70;;
41739;SDS011;27422;52.444;13.300;2023-02-03T18:00:36;13.93;;;2.80;;
41739;SDS011;27422;52.444;13.300;2023-02-03T18:03:01;11.13;;;1.67;;
41739;SDS011;27422;52.444;13.300;2023-02-03T18:05:27;12.52;;;2.80;;
41739;SDS011;27422;52.444;13.300;2023-02-03T18:07:53;18.85;;;3.05;;
41739;SDS011;27422;52.444;13.300;2023-02-03T18:10:19;9.88;;;2.10;;
41739;SDS011;27422;52.444;13.300;2023-02-03T18:12:44;11.88;;;1.85;;
41739;SDS011;27422;52.444;13.300;2023-02-03T18:15:09;9.57;;;2.08;;
41739;SDS011;27422;52.444;13.300;2023-02-03T18:17:35;9.48;;;1.95;;
41739;SDS011;27422;52.444;13.300;2023-02-03T18:20:00;15.25;;;2.75;;
41739;SDS011;27422;52.444;13.300;2023-02-03T18:22:27;11.20;;;2.00;;
41739;SDS011;27422;52.444;13.300;2023-02-03T18:24:53;10.85;;;1.65;;
41739;SDS011;27422;52.444;13.300;2023-02-03T18:27:19;10.93;;;2.05;;
41739;SDS011;27422;52.444;13.300;2023-02-03T18:29:50;11.50;;;2.03;;
41739;SDS011;27422;52.444;13.300;2023-02-03T18:32:15;9.23;;;1.92;;
41739;SDS011;27422;52.444;13.300;2023-02-03T18:34:41;13.27;;;2.75;;
41739;SDS011;27422;52.444;13.300;2023-02-03T18:37:06;11.27;;;2.58;;
41739;SDS011;27422;52.444;13.300;2023-02-03T18:39:32;9.90;;;2.53;;
41739;SDS011;27422;52.444;13.300;2023-02-03T18:41:58;8.75;;;2.10;;
41739;SDS011;27422;52.444;13.300;2023-02-03T18:44:23;9.20;;;1.77;;
41739;SDS011;27422;52.444;13.300;2023-02-03T18:46:51;12.25;;;2.13;;
41739;SDS011;27422;52.444;13.300;2023-02-03T18:49:17;12.90;;;2.28;;
41739;SDS011;27422;52.444;13.300;2023-02-03T18:51:43;10.93;;;2.08;;
41739;SDS011;27422;52.444;13.300;2023-02-03T18:54:08;11.45;;;2.33;;
41739;SDS011;27422;52.444;13.300;2023-02-03T18:56:34;10.35;;;1.85;;
41739;SDS011;27422;52.444;13.300;2023-02-03T18:59:04;8.18;;;1.60;;
41739;SDS011;27422;52.444;13.300;2023-02-03T19:01:36;11.23;;;1.88;;
41739;SDS011;27422;52.444;13.300;2023-02-03T19:04:05;8.75;;;2.05;;
41739;SDS011;27422;52.444;13.300;2023-02-03T19:06:33;10.50;;;2.08;;
41739;SDS011;27422;52.444;13.300;2023-02-03T19:09:09;10.20;;;1.90;;
41739;SDS011;27422;52.444;13.300;2023-02-03T19:11:36;10.02;;;1.75;;
41739;SDS011;27422;52.444;13.300;2023-02-03T19:14:02;19.13;;;2.90;;
41739;SDS011;27422;52.444;13.300;2023-02-03T19:16:27;6.97;;;1.55;;
41739;SDS011;27422;52.444;13.300;2023-02-03T19:18:53;7.47;;;1.40;;
41739;SDS011;27422;52.444;13.300;2023-02-03T19:21:18;16.63;;;2.97;;
41739;SDS011;27422;52.444;13.300;2023-02-03T19:23:46;10.18;;;1.80;;
41739;SDS011;27422;52.444;13.300;2023-02-03T19:26:11;9.13;;;2.13;;
41739;SDS011;27422;52.444;13.300;2023-02-03T19:28:37;9.40;;;1.65;;
41739;SDS011;27422;52.444;13.300;2023-02-03T19:31:04;9.10;;;1.95;;
41739;SDS011;27422;52.444;13.300;2023-02-03T19:33:34;10.27;;;1.60;;
41739;SDS011;27422;52.444;13.300;2023-02-03T19:36:00;6.82;;;1.23;;
41739;SDS011;27422;52.444;13.300;2023-02-03T19:38:26;13.07;;;2.78;;
41739;SDS011;27422;52.444;13.300;2023-02-03T19:40:51;10.13;;;1.90;;
41739;SDS011;27422;52.444;13.300;2023-02-03T19:43:17;11.88;;;1.60;;
41739;SDS011;27422;52.444;13.300;2023-02-03T19:45:42;12.20;;;2.35;;
41739;SDS011;27422;52.444;13.300;2023-02-03T19:48:08;11.48;;;1.98;;
41739;SDS011;27422;52.444;13.300;2023-02-03T19:50:36;5.65;;;1.50;;
41739;SDS011;27422;52.444;13.300;2023-02-03T19:53:02;14.30;;;2.00;;
41739;SDS011;27422;52.444;13.300;2023-02-03T19:55:33;9.63;;;1.65;;
41739;SDS011;27422;52.444;13.300;2023-02-03T19:58:02;7.38;;;1.42;;
41739;SDS011;27422;52.444;13.300;2023-02-03T20:00:27;7.05;;;1.60;;
41739;SDS011;27422;52.444;13.300;2023-02-03T20:02:53;6.22;;;1.30;;
41739;SDS011;27422;52.444;13.300;2023-02-03T20:05:18;5.88;;;1.48;;
41739;SDS011;27422;52.444;13.300;2023-02-03T20:07:44;5.05;;;1.40;;
41739;SDS011;27422;52.444;13.300;2023-02-03T20:10:10;9.65;;;1.70;;
41739;SDS011;27422;52.444;13.300;2023-02-03T20:12:36;6.55;;;1.60;;
41739;SDS011;27422;52.444;13.300;2023-02-03T20:15:05;8.13;;;1.60;;
41739;SDS011;27422;52.444;13.300;2023-02-03T20:17:30;8.60;;;1.45;;